createdAt,value
2019-05-11T00:00:39.646Z,9.35
2019-05-11T00:03:12.023Z,10.08
2019-05-11T00:05:46.245Z,10.65
2019-05-11T00:08:19.274Z,9.90
2019-05-11T00:10:50.775Z,10.75
2019-05-11T00:13:22.629Z,10.60
2019-05-11T00:15:54.700Z,11.68
2019-05-11T00:18:27.599Z,12.58
2019-05-11T00:21:01.082Z,13.78
2019-05-11T00:23:33.645Z,12.75
2019-05-11T00:26:08.208Z,12.15
2019-05-11T00:28:40.125Z,12.43
2019-05-11T00:31:11.544Z,10.68
2019-05-11T00:33:43.938Z,10.70
2019-05-11T00:36:17.110Z,10.55
2019-05-11T00:38:48.713Z,8.83
2019-05-11T00:41:20.371Z,8.83
2019-05-11T00:43:53.338Z,9.05
2019-05-11T00:46:25.215Z,8.38
2019-05-11T00:48:58.250Z,7.90
2019-05-11T00:51:29.758Z,7.28
2019-05-11T00:54:01.206Z,7.35
2019-05-11T00:56:32.860Z,6.50
2019-05-11T00:59:04.824Z,6.67
2019-05-11T01:01:36.573Z,6.42
2019-05-11T01:04:12.136Z,6.28
2019-05-11T01:06:43.806Z,6.12
2019-05-11T01:09:15.353Z,5.78
2019-05-11T01:11:47.087Z,6.05
2019-05-11T01:14:18.752Z,6.22
2019-05-11T01:16:52.268Z,5.97
2019-05-11T01:19:23.799Z,6.05
2019-05-11T01:22:00.172Z,6.40
2019-05-11T01:24:32.533Z,6.10
2019-05-11T01:27:04.603Z,7.30
2019-05-11T01:29:36.305Z,6.53
2019-05-11T01:32:10.480Z,6.12
2019-05-11T01:34:41.928Z,6.08
2019-05-11T01:37:13.526Z,5.92
2019-05-11T01:39:45.224Z,5.62
2019-05-11T01:42:16.711Z,6.12
2019-05-11T01:44:48.439Z,6.85
2019-05-11T01:47:21.099Z,7.47
2019-05-11T01:49:52.462Z,8.58
2019-05-11T01:52:24.012Z,7.70
2019-05-11T01:54:55.975Z,7.53
2019-05-11T01:57:27.631Z,7.72
2019-05-11T02:00:00.356Z,7.92
2019-05-11T02:02:32.065Z,8.45
2019-05-11T02:05:22.975Z,8.33
2019-05-11T02:07:54.456Z,8.38
2019-05-11T02:10:28.448Z,9.08
2019-05-11T02:13:01.688Z,9.05
2019-05-11T02:15:35.123Z,9.75
2019-05-11T02:18:08.525Z,10.28
2019-05-11T02:20:42.025Z,10.13
2019-05-11T02:23:13.368Z,10.28
2019-05-11T02:25:45.212Z,9.63
2019-05-11T02:28:16.984Z,10.20
2019-05-11T02:30:48.534Z,10.30
2019-05-11T02:33:20.291Z,10.48
2019-05-11T02:35:51.828Z,10.10
2019-05-11T02:38:23.499Z,9.78
2019-05-11T02:40:54.920Z,10.38
2019-05-11T02:43:26.485Z,10.00
2019-05-11T02:45:58.350Z,9.95
2019-05-11T02:48:30.026Z,10.18
2019-05-11T02:51:01.404Z,8.43
2019-05-11T02:53:32.937Z,6.60
2019-05-11T02:56:04.579Z,11.48
2019-05-11T02:58:35.937Z,7.17
2019-05-11T03:01:07.224Z,6.03
2019-05-11T03:03:38.630Z,5.70
2019-05-11T03:06:11.298Z,5.25
2019-05-11T03:08:42.924Z,6.08
2019-05-11T03:11:14.325Z,5.15
2019-05-11T03:13:45.882Z,5.17
2019-05-11T03:16:17.955Z,4.95
2019-05-11T03:18:51.107Z,4.92
2019-05-11T03:21:22.358Z,4.37
2019-05-11T03:23:53.903Z,4.53
2019-05-11T03:26:25.465Z,4.75
2019-05-11T03:28:57.047Z,5.08
2019-05-11T03:31:28.373Z,5.17
2019-05-11T03:34:00.066Z,4.45
2019-05-11T03:36:31.548Z,4.42
2019-05-11T03:39:04.794Z,4.30
2019-05-11T03:41:37.168Z,4.15
2019-05-11T03:44:08.682Z,3.58
2019-05-11T03:46:40.197Z,3.62
2019-05-11T03:49:11.890Z,4.35
2019-05-11T03:51:44.039Z,2.98
2019-05-11T03:54:15.818Z,3.58
2019-05-11T03:56:47.161Z,3.05
2019-05-11T03:59:18.751Z,2.87
2019-05-11T04:01:50.270Z,3.37
2019-05-11T04:04:24.393Z,3.22
2019-05-11T04:06:55.729Z,3.80
2019-05-11T04:09:27.474Z,3.80
2019-05-11T04:11:58.934Z,3.92
2019-05-11T04:14:30.267Z,4.65
2019-05-11T04:17:01.743Z,4.45
2019-05-11T04:19:33.106Z,4.40
2019-05-11T04:22:05.653Z,4.28
2019-05-11T04:24:37.176Z,3.75
2019-05-11T04:27:08.685Z,3.30
2019-05-11T04:29:40.925Z,3.37
2019-05-11T04:32:12.489Z,2.85
2019-05-11T04:34:44.244Z,2.80
2019-05-11T04:37:18.235Z,3.10
2019-05-11T04:39:49.631Z,2.65
2019-05-11T04:42:21.171Z,3.55
2019-05-11T04:44:53.870Z,2.85
2019-05-11T04:47:25.283Z,2.92
2019-05-11T04:49:56.937Z,2.40
2019-05-11T04:52:29.728Z,2.90
2019-05-11T04:55:03.913Z,3.08
2019-05-11T04:57:36.818Z,2.60
2019-05-11T05:00:08.526Z,2.80
2019-05-11T05:02:39.923Z,3.58
2019-05-11T05:05:11.349Z,2.80
2019-05-11T05:07:49.366Z,2.90
2019-05-11T05:10:19.874Z,2.95
2019-05-11T05:12:51.331Z,3.05
2019-05-11T05:15:25.974Z,3.47
2019-05-11T05:17:57.180Z,3.55
2019-05-11T05:20:28.752Z,3.52
2019-05-11T05:23:00.144Z,3.77
2019-05-11T05:25:31.505Z,3.02
2019-05-11T05:28:04.458Z,3.70
2019-05-11T05:30:36.238Z,3.15
2019-05-11T05:33:07.548Z,3.15
2019-05-11T05:35:40.057Z,3.37
2019-05-11T05:38:11.385Z,3.25
2019-05-11T05:40:42.834Z,3.42
2019-05-11T05:43:25.895Z,3.08
2019-05-11T05:45:49.643Z,3.22
2019-05-11T05:48:21.408Z,3.12
2019-05-11T05:50:53.579Z,3.35
2019-05-11T05:53:25.431Z,4.10
2019-05-11T05:55:56.772Z,4.00
2019-05-11T05:58:29.739Z,4.60
2019-05-11T06:01:05.401Z,4.50
2019-05-11T06:03:39.692Z,5.12
2019-05-11T06:06:11.671Z,6.17
2019-05-11T06:08:43.543Z,5.10
2019-05-11T06:11:17.333Z,5.65
2019-05-11T06:13:48.645Z,4.97
2019-05-11T06:16:20.653Z,5.28
2019-05-11T06:18:52.031Z,5.40
2019-05-11T06:21:29.509Z,5.85
2019-05-11T06:24:05.854Z,5.10
2019-05-11T06:26:33.822Z,3.83
2019-05-11T06:29:05.490Z,4.00
2019-05-11T06:31:38.399Z,3.70
2019-05-11T06:34:11.672Z,4.10
2019-05-11T06:36:42.905Z,4.33
2019-05-11T06:39:14.183Z,4.95
2019-05-11T06:41:45.546Z,4.37
2019-05-11T06:44:17.559Z,3.80
2019-05-11T06:46:48.796Z,3.22
2019-05-11T06:49:21.683Z,4.28
2019-05-11T06:51:53.256Z,4.80
2019-05-11T06:54:24.801Z,4.15
2019-05-11T06:56:56.036Z,4.30
2019-05-11T06:59:27.762Z,4.30
2019-05-11T07:01:59.251Z,3.80
2019-05-11T07:04:30.483Z,3.30
2019-05-11T07:07:01.944Z,3.40
2019-05-11T07:09:35.240Z,2.65
2019-05-11T07:12:08.057Z,2.60
2019-05-11T07:14:39.644Z,3.75
2019-05-11T07:17:10.991Z,3.00
2019-05-11T07:19:42.375Z,3.45
2019-05-11T07:22:13.778Z,3.22
2019-05-11T07:24:45.106Z,3.12
2019-05-11T07:27:16.529Z,3.17
2019-05-11T07:29:47.807Z,2.83
2019-05-11T07:32:24.960Z,2.40
2019-05-11T07:34:51.929Z,2.40
2019-05-11T07:37:24.485Z,2.02
2019-05-11T07:39:57.878Z,1.82
2019-05-11T07:42:28.923Z,2.37
2019-05-11T07:45:00.604Z,2.55
2019-05-11T07:47:31.970Z,2.17
2019-05-11T07:50:07.974Z,2.00
2019-05-11T07:52:38.464Z,1.65
2019-05-11T07:55:09.954Z,1.80
2019-05-11T07:57:41.392Z,1.70
2019-05-11T08:00:12.688Z,1.82
2019-05-11T08:02:44.119Z,1.50
2019-05-11T08:05:15.152Z,1.90
2019-05-11T08:07:48.151Z,4.05
2019-05-11T08:10:20.621Z,2.20
2019-05-11T08:12:51.827Z,3.60
2019-05-11T08:15:23.870Z,2.83
2019-05-11T08:17:57.815Z,2.08
2019-05-11T08:20:29.353Z,2.45
2019-05-11T08:23:00.623Z,3.22
2019-05-11T08:25:32.882Z,1.82
2019-05-11T08:28:04.346Z,1.75
2019-05-11T08:30:37.994Z,1.90
2019-05-11T08:33:10.597Z,2.27
2019-05-11T08:35:42.071Z,2.22
2019-05-11T08:38:13.371Z,1.85
2019-05-11T08:40:44.651Z,1.40
2019-05-11T08:43:17.875Z,1.60
2019-05-11T08:45:48.828Z,2.02
2019-05-11T08:48:21.272Z,1.77
2019-05-11T08:50:52.480Z,1.90
2019-05-11T08:53:23.735Z,2.55
2019-05-11T08:55:55.053Z,2.10
2019-05-11T08:58:27.817Z,2.10
2019-05-11T09:00:59.289Z,2.42
2019-05-11T09:03:30.670Z,2.70
2019-05-11T09:06:03.655Z,2.77
2019-05-11T09:08:39.102Z,2.30
2019-05-11T09:11:10.546Z,1.80
2019-05-11T09:13:41.921Z,2.20
2019-05-11T09:16:15.715Z,2.20
2019-05-11T09:18:47.971Z,2.08
2019-05-11T09:21:19.549Z,3.22
2019-05-11T09:23:50.876Z,2.30
2019-05-11T09:26:22.860Z,2.15
2019-05-11T09:28:54.227Z,2.40
2019-05-11T09:31:27.768Z,2.15
2019-05-11T09:33:59.905Z,2.00
2019-05-11T09:36:34.729Z,1.90
2019-05-11T09:39:09.317Z,1.70
2019-05-11T09:41:40.440Z,2.12
2019-05-11T09:44:14.975Z,1.82
2019-05-11T09:46:48.009Z,2.20
2019-05-11T09:49:19.161Z,2.35
2019-05-11T09:51:50.441Z,2.20
2019-05-11T09:54:21.838Z,1.92
2019-05-11T09:56:54.972Z,2.90
2019-05-11T09:59:28.207Z,2.58
2019-05-11T10:01:59.149Z,2.20
2019-05-11T10:04:34.047Z,2.58
2019-05-11T10:07:05.388Z,2.80
2019-05-11T10:09:38.295Z,2.70
2019-05-11T10:12:11.738Z,3.42
2019-05-11T10:14:44.426Z,3.65
2019-05-11T10:17:18.084Z,3.70
2019-05-11T10:19:49.708Z,2.87
2019-05-11T10:22:21.229Z,2.85
2019-05-11T10:24:54.731Z,3.10
2019-05-11T10:27:28.039Z,2.90
2019-05-11T10:29:59.086Z,3.90
2019-05-11T10:32:30.872Z,3.50
2019-05-11T10:35:02.240Z,2.80
2019-05-11T10:37:33.749Z,3.00
2019-05-11T10:40:09.328Z,3.40
2019-05-11T10:42:48.371Z,3.22
2019-05-11T10:45:19.356Z,6.70
2019-05-11T10:47:53.545Z,3.30
2019-05-11T10:50:28.599Z,4.67
2019-05-11T10:53:00.044Z,10.20
2019-05-11T10:55:31.779Z,4.47
2019-05-11T10:58:02.912Z,4.50
2019-05-11T11:00:35.299Z,6.53
2019-05-11T11:03:08.458Z,3.75
2019-05-11T11:05:39.631Z,4.25
2019-05-11T11:08:11.059Z,4.62
2019-05-11T11:10:42.386Z,4.50
2019-05-11T11:13:13.741Z,4.97
2019-05-11T11:15:45.180Z,4.28
2019-05-11T11:18:18.663Z,4.90
2019-05-11T11:20:50.327Z,5.05
2019-05-11T11:23:21.543Z,7.92
2019-05-11T11:25:52.968Z,5.92
2019-05-11T11:28:24.274Z,6.60
2019-05-11T11:30:58.493Z,5.67
2019-05-11T11:33:30.489Z,11.03
2019-05-11T11:36:01.800Z,5.97
2019-05-11T11:38:33.097Z,6.65
2019-05-11T11:41:07.466Z,6.90
2019-05-11T11:43:38.791Z,11.53
2019-05-11T11:46:10.181Z,7.17
2019-05-11T11:48:41.588Z,6.70
2019-05-11T11:51:13.327Z,6.45
2019-05-11T11:53:44.632Z,6.62
2019-05-11T11:56:15.920Z,6.58
2019-05-11T11:58:48.774Z,6.10
2019-05-11T12:01:19.989Z,8.75
2019-05-11T12:03:51.287Z,7.67
2019-05-11T12:06:22.653Z,6.15
2019-05-11T12:08:53.906Z,8.53
2019-05-11T12:11:27.353Z,5.62
2019-05-11T12:13:58.379Z,7.47
2019-05-11T12:16:29.812Z,5.70
2019-05-11T12:19:01.360Z,6.60
2019-05-11T12:21:32.719Z,6.78
2019-05-11T12:24:08.046Z,8.85
2019-05-11T12:26:44.317Z,9.70
2019-05-11T12:29:15.562Z,9.28
2019-05-11T12:31:48.498Z,16.65
2019-05-11T12:34:20.242Z,12.15
2019-05-11T12:36:51.658Z,12.53
2019-05-11T12:39:28.000Z,13.10
2019-05-11T12:42:00.584Z,12.28
2019-05-11T12:44:33.299Z,13.15
2019-05-11T12:47:19.202Z,12.70
2019-05-11T12:49:39.127Z,10.72
2019-05-11T12:52:11.829Z,10.98
2019-05-11T12:54:43.078Z,10.48
2019-05-11T12:57:14.433Z,11.18
2019-05-11T12:59:48.666Z,12.25
2019-05-11T13:02:22.349Z,12.40
2019-05-11T13:04:53.561Z,11.83
2019-05-11T13:07:25.542Z,12.23
2019-05-11T13:09:58.043Z,11.50
2019-05-11T13:12:29.624Z,11.05
2019-05-11T13:15:01.058Z,11.22
2019-05-11T13:17:37.410Z,11.35
2019-05-11T13:20:08.691Z,11.55
2019-05-11T13:22:40.238Z,10.70
2019-05-11T13:25:11.531Z,12.18
2019-05-11T13:27:45.720Z,10.45
2019-05-11T13:30:18.392Z,12.25
2019-05-11T13:32:50.034Z,12.75
2019-05-11T13:35:21.368Z,11.78
2019-05-11T13:37:52.842Z,12.15
2019-05-11T13:40:24.362Z,12.18
2019-05-11T13:42:58.134Z,11.80
2019-05-11T13:45:29.822Z,10.95
2019-05-11T13:48:01.229Z,9.80
2019-05-11T13:50:33.587Z,9.60
2019-05-11T13:53:05.090Z,9.05
2019-05-11T13:55:38.587Z,8.50
2019-05-11T13:58:09.579Z,7.97
2019-05-11T14:00:40.862Z,7.83
2019-05-11T14:03:13.769Z,8.80
2019-05-11T14:05:45.085Z,7.80
2019-05-11T14:08:18.357Z,8.25
2019-05-11T14:10:49.540Z,9.23
2019-05-11T14:13:21.029Z,9.63
2019-05-11T14:15:52.439Z,8.85
2019-05-11T14:18:24.544Z,9.60
2019-05-11T14:20:55.831Z,9.75
2019-05-11T14:23:30.829Z,9.93
2019-05-11T14:26:00.288Z,9.23
2019-05-11T14:28:32.943Z,7.80
2019-05-11T14:31:04.523Z,8.28
2019-05-11T14:33:38.530Z,8.00
2019-05-11T14:36:10.095Z,9.15
2019-05-11T14:38:41.578Z,8.78
2019-05-11T14:41:17.959Z,9.08
2019-05-11T14:43:49.083Z,9.85
2019-05-11T14:46:20.550Z,9.70
2019-05-11T14:48:53.869Z,9.88
2019-05-11T14:51:28.898Z,10.08
2019-05-11T14:54:00.371Z,11.08
2019-05-11T14:56:31.725Z,11.97
2019-05-11T14:59:03.244Z,13.25
2019-05-11T15:01:34.623Z,15.10
2019-05-11T15:04:06.010Z,13.28
2019-05-11T15:06:39.904Z,12.13
2019-05-11T15:09:11.406Z,15.43
2019-05-11T15:11:42.791Z,14.55
2019-05-11T15:14:18.726Z,21.20
2019-05-11T15:16:48.782Z,21.40
2019-05-11T15:19:21.057Z,27.62
2019-05-11T15:21:52.603Z,33.53
2019-05-11T15:24:24.026Z,27.02
2019-05-11T15:26:57.476Z,27.27
2019-05-11T15:29:28.909Z,21.50
2019-05-11T15:32:00.243Z,20.77
2019-05-11T15:34:32.105Z,20.02
2019-05-11T15:37:03.470Z,17.95
2019-05-11T15:39:37.736Z,17.55
2019-05-11T15:42:16.229Z,18.65
2019-05-11T15:44:42.928Z,17.40
2019-05-11T15:47:14.069Z,15.65
2019-05-11T15:49:45.402Z,16.00
2019-05-11T15:52:18.776Z,15.78
2019-05-11T15:54:50.523Z,16.60
2019-05-11T15:57:23.322Z,19.62
2019-05-11T15:59:54.772Z,20.97
2019-05-11T16:02:25.957Z,29.90
2019-05-11T16:04:58.219Z,21.20
2019-05-11T16:07:30.990Z,16.75
2019-05-11T16:10:07.918Z,15.15
2019-05-11T16:12:39.310Z,14.83
2019-05-11T16:15:11.035Z,13.95
2019-05-11T16:17:42.455Z,15.72
2019-05-11T16:20:17.511Z,15.58
2019-05-11T16:22:51.651Z,13.35
2019-05-11T16:25:25.204Z,11.15
2019-05-11T16:27:56.776Z,32.00
2019-05-11T16:30:28.830Z,11.53
2019-05-11T16:33:01.729Z,12.68
2019-05-11T16:35:33.179Z,12.98
2019-05-11T16:38:07.786Z,11.90
2019-05-11T16:40:39.802Z,12.10
2019-05-11T16:43:11.033Z,9.75
2019-05-11T16:45:42.555Z,11.40
2019-05-11T16:48:13.844Z,11.22
2019-05-11T16:50:46.971Z,11.15
2019-05-11T16:53:18.480Z,11.30
2019-05-11T16:55:49.943Z,10.55
2019-05-11T16:58:21.860Z,12.13
2019-05-11T17:00:53.856Z,12.30
2019-05-11T17:03:27.737Z,12.70
2019-05-11T17:06:03.042Z,12.07
2019-05-11T17:08:44.028Z,12.18
2019-05-11T17:11:23.727Z,13.00
2019-05-11T17:13:57.594Z,12.82
2019-05-11T17:16:30.191Z,15.83
2019-05-11T17:19:01.391Z,11.85
2019-05-11T17:21:33.375Z,12.10
2019-05-11T17:24:05.093Z,11.35
2019-05-11T17:26:43.481Z,12.90
2019-05-11T17:29:15.860Z,12.20
2019-05-11T17:31:48.488Z,13.60
2019-05-11T17:34:21.198Z,12.88
2019-05-11T17:36:57.252Z,13.03
2019-05-11T17:39:31.150Z,14.73
2019-05-11T17:42:05.149Z,15.95
2019-05-11T17:44:37.895Z,16.97
2019-05-11T17:47:11.918Z,16.90
2019-05-11T17:49:57.460Z,16.15
2019-05-11T17:52:19.547Z,17.32
2019-05-11T17:54:50.846Z,15.32
2019-05-11T17:57:24.717Z,15.70
2019-05-11T17:59:57.915Z,54.03
2019-05-11T18:02:29.094Z,18.60
2019-05-11T18:05:01.517Z,15.10
2019-05-11T18:07:33.992Z,14.68
2019-05-11T18:10:07.988Z,15.68
2019-05-11T18:12:39.229Z,18.70
2019-05-11T18:15:10.888Z,17.65
2019-05-11T18:17:43.290Z,18.05
2019-05-11T18:20:20.526Z,18.00
2019-05-11T18:22:49.785Z,17.20
2019-05-11T18:25:21.241Z,16.90
2019-05-11T18:27:59.211Z,17.15
2019-05-11T18:30:31.567Z,21.95
2019-05-11T18:33:04.995Z,20.50
2019-05-11T18:35:39.916Z,20.70
2019-05-11T18:38:13.033Z,20.82
2019-05-11T18:40:44.548Z,19.40
2019-05-11T18:43:18.769Z,19.45
2019-05-11T18:45:49.881Z,20.20
2019-05-11T18:48:21.425Z,19.98
2019-05-11T18:50:56.133Z,20.50
2019-05-11T18:53:28.560Z,17.57
2019-05-11T18:55:59.685Z,25.27
2019-05-11T18:58:34.710Z,28.38
2019-05-11T19:01:06.574Z,24.27
2019-05-11T19:03:38.512Z,23.55
2019-05-11T19:06:10.228Z,22.45
2019-05-11T19:08:42.771Z,21.95
2019-05-11T19:11:14.120Z,24.32
2019-05-11T19:13:58.159Z,24.63
2019-05-11T19:19:51.471Z,23.90
2019-05-11T19:22:24.630Z,22.48
2019-05-11T19:24:57.762Z,20.55
2019-05-11T19:27:31.144Z,24.90
2019-05-11T19:30:09.356Z,84.75
2019-05-11T19:32:40.718Z,24.37
2019-05-11T19:35:13.654Z,17.42
2019-05-11T19:37:49.597Z,19.60
2019-05-11T19:40:21.518Z,20.65
2019-05-11T19:42:59.162Z,19.12
2019-05-11T19:45:32.679Z,18.82
2019-05-11T19:48:05.367Z,18.37
2019-05-11T19:50:40.897Z,18.73
2019-05-11T19:53:11.609Z,21.48
2019-05-11T19:55:42.968Z,25.55
2019-05-11T19:58:14.203Z,26.02
2019-05-11T20:00:48.656Z,24.60
2019-05-11T20:03:28.555Z,22.70
2019-05-11T20:06:00.911Z,22.93
2019-05-11T20:08:34.246Z,24.47
2019-05-11T20:11:08.047Z,25.05
2019-05-11T20:13:38.887Z,23.55
2019-05-11T20:16:12.335Z,38.75
2019-05-11T20:18:43.801Z,42.35
2019-05-11T20:21:19.567Z,24.67
2019-05-11T20:23:48.488Z,24.45
2019-05-11T20:26:19.829Z,26.48
2019-05-11T20:28:51.961Z,25.92
2019-05-11T20:31:23.864Z,25.82
2019-05-11T20:33:55.195Z,25.43
2019-05-11T20:36:27.580Z,24.27
2019-05-11T20:39:00.087Z,23.05
2019-05-11T20:41:34.000Z,23.12
2019-05-11T20:44:05.316Z,23.15
2019-05-11T20:46:38.273Z,24.00
2019-05-11T20:49:09.947Z,24.40
2019-05-11T20:51:42.362Z,25.10
2019-05-11T20:54:13.589Z,25.85
2019-05-11T20:56:45.025Z,51.20
2019-05-11T20:59:18.294Z,29.48
2019-05-11T21:01:50.628Z,26.57
2019-05-11T21:04:21.909Z,25.95
2019-05-11T21:06:53.318Z,26.07
2019-05-11T21:09:24.644Z,27.73
2019-05-11T21:11:58.631Z,28.15
2019-05-11T21:14:29.995Z,27.67
2019-05-11T21:17:03.005Z,28.35
2019-05-11T21:19:34.491Z,28.52
2019-05-11T21:22:11.878Z,33.20
2019-05-11T21:24:43.383Z,26.95
2019-05-11T21:27:15.575Z,23.77
2019-05-11T21:29:49.123Z,21.95
2019-05-11T21:32:19.996Z,23.40
2019-05-11T21:34:52.357Z,25.20
2019-05-11T21:37:23.917Z,28.23
2019-05-11T21:39:55.144Z,28.52
2019-05-11T21:42:31.211Z,30.92
2019-05-11T21:45:09.053Z,29.50
2019-05-11T21:47:42.880Z,30.27
2019-05-11T21:50:15.125Z,32.03
2019-05-11T21:52:48.449Z,29.98
2019-05-11T21:55:19.672Z,28.90
2019-05-11T21:57:50.969Z,28.35
2019-05-11T22:00:23.749Z,28.98
2019-05-11T22:02:56.836Z,29.00
2019-05-11T22:05:30.450Z,27.95
2019-05-11T22:08:04.217Z,29.80
2019-05-11T22:10:35.827Z,30.90
2019-05-11T22:13:10.689Z,31.50
2019-05-11T22:15:42.881Z,32.35
2019-05-11T22:18:28.244Z,30.62
2019-05-11T22:20:48.548Z,31.12
2019-05-11T22:23:20.120Z,32.75
2019-05-11T22:25:51.466Z,32.95
2019-05-11T22:28:22.751Z,34.18
2019-05-11T22:30:53.937Z,34.35
2019-05-11T22:33:25.208Z,31.85
2019-05-11T22:35:58.576Z,40.48
2019-05-11T22:38:30.574Z,37.88
2019-05-11T22:41:01.875Z,35.45
2019-05-11T22:43:33.194Z,36.70
2019-05-11T22:46:04.416Z,36.77
2019-05-11T22:48:38.016Z,39.10
2019-05-11T22:51:10.009Z,39.88
2019-05-11T22:53:46.732Z,51.65
2019-05-11T22:56:14.255Z,35.03
2019-05-11T22:58:49.722Z,36.53
2019-05-11T23:01:18.469Z,39.45
2019-05-11T23:03:49.732Z,36.88
2019-05-11T23:06:21.022Z,36.35
2019-05-11T23:08:54.167Z,43.23
2019-05-11T23:11:25.614Z,41.63
2019-05-11T23:13:56.942Z,37.13
2019-05-11T23:16:30.032Z,34.80
2019-05-11T23:19:01.604Z,35.25
2019-05-11T23:21:32.974Z,34.55
2019-05-11T23:24:04.231Z,34.67
2019-05-11T23:26:35.367Z,33.90
2019-05-11T23:29:08.163Z,35.13
2019-05-11T23:31:41.662Z,36.55
2019-05-11T23:34:13.363Z,47.00
2019-05-11T23:36:45.140Z,63.17
2019-05-11T23:39:17.852Z,32.63
2019-05-11T23:41:49.470Z,32.90
2019-05-11T23:44:20.763Z,35.20
2019-05-11T23:46:52.160Z,37.42
2019-05-11T23:49:23.596Z,42.95
2019-05-11T23:51:54.797Z,43.80
2019-05-11T23:54:27.813Z,41.42
2019-05-11T23:56:59.282Z,46.80
2019-05-11T23:59:32.658Z,49.42
